Ansley, MS

8:33 AM CDT on October 24, 2014 (GMT -0500)
Joe's Redneck Weather | Change Station
CLOSE
Current Station
Personal Weather Station
Location: Waveland, MS
Elevation: 9 m
Nearby Weather Stations

Elev 9 m 30.29 °N, 89.37 °W | Updated 1 second ago

Clear
Clear
13.8 °C
Feels Like 13.8 °C
N
0.0
Wind Variable Wind from North
Gusts 5.0 km/h

Today
High -- | Low -- °C
--% Chance of Precip.
Yesterday
High -- | Low -- °C
Precip. -- mm
7:06 AM 6:17 PM
New Moon, 0% visible
Pressure 1019 hPa
Visibility 16.1 kilometers
Clouds Clear
Dew Point 10 °C
Humidity 79%
Rainfall 0 mm
Snow Depth Not available.
UV 0.0 out of 12
Pollen 3.20 out of 12
Ozone Good
PM2.5 Good
Flu Activity No Activity
METAR KHSA 241255Z 00000KT 10SM CLR 09/08 A3010

More Conditions Fewer Conditions

Pressure 1019 hPa
Visibility 16.1 kilometers
Clouds Clear
Dew Point 10 °C
Humidity 79%
Rainfall 0 mm
Snow Depth Not available.
UV 0.0 out of 12
Pollen 3.20 out of 12
Ozone Good
PM2.5 Good
Flu Activity No Activity
METAR KHSA 241255Z 00000KT 10SM CLR 09/08 A3010

More Conditions Fewer Conditions

10-Day Weather Forecast

Almanac

Astronomy

Oct. 24, 2014 Rise Set
Actual Time 7:06 AM CDT 6:17 PM CDT
Civil Twilight 6:41 AM CDT 6:42 PM CDT
Nautical Twilight 6:13 AM CDT 7:10 PM CDT
Astronomical Twilight 5:45 AM CDT 7:38 PM CDT
Moon 7:43 AM CDT 7:00 PM CDT
Length of Visible Light 12h 00m
Length of Day
11h 11m
Tomorrow will be 1m 40s shorter.
New Moon, 0% of the Moon is Illuminated
Today
New Moon
Oct 30
First Quarter
Nov 6
Full
Nov 14
Last Quarter
Nov 22
New

Today's Extremes

State Highs State Lows

Community

WunderPhotos

Upload Photos

1,764,550 photos uploaded!

WunderBlogs® & News

Nearby

Air Quality

  Air Quality AQ Index Pollutant
Yesterday Good
OZONE
Yesterday Good
PM2.5
Current Good
PM2.5
Current Good
OZONE
Friday Good
OZONE
Friday Good
PM2.5
Saturday Good
OZONE
Saturday Good
PM2.5
Sunday Good
OZONE
Sunday Good
PM2.5

Snow Depth

Station Depth Elevation
No new snow has been reported.

Earthquake Activity

City Distance Mag. Time & Date
No recent earthquake activity has been reported nearby.
Minimum magnitude displayed is 2.5.

Coastal Water Temperatures

Place Temperature
No Stations Reporting

Nearby Weather Stations